createdAt,value
2022-10-18T00:00:19.766Z,9.47
2022-10-18T00:02:46.581Z,12.80
2022-10-18T00:05:13.290Z,10.47
2022-10-18T00:07:39.992Z,11.90
2022-10-18T00:10:07.537Z,10.03
2022-10-18T00:12:36.752Z,10.07
2022-10-18T00:15:07.226Z,9.47
2022-10-18T00:17:38.845Z,9.60
2022-10-18T00:20:07.462Z,9.77
2022-10-18T00:22:40.593Z,9.73
2022-10-18T00:25:09.820Z,10.60
2022-10-18T00:27:37.506Z,9.57
2022-10-18T00:30:06.147Z,9.40
2022-10-18T00:32:38.404Z,9.33
2022-10-18T00:35:07.535Z,8.57
2022-10-18T00:37:36.017Z,9.50
2022-10-18T00:40:03.042Z,8.63
2022-10-18T00:42:36.659Z,10.80
2022-10-18T00:45:18.574Z,12.57
2022-10-18T00:47:53.250Z,9.37
2022-10-18T00:50:22.962Z,8.67
2022-10-18T00:52:58.357Z,8.33
2022-10-18T00:55:32.005Z,8.93
2022-10-18T00:57:59.106Z,8.70
2022-10-18T01:00:25.842Z,9.87
2022-10-18T01:02:52.775Z,11.67
2022-10-18T01:05:20.654Z,9.97
2022-10-18T01:08:06.961Z,12.33
2022-10-18T01:11:06.999Z,10.33
2022-10-18T01:13:51.198Z,11.63
2022-10-18T01:16:53.430Z,12.67
2022-10-18T01:19:49.281Z,10.27
2022-10-18T01:22:36.074Z,13.53
2022-10-18T01:25:51.657Z,10.07
2022-10-18T01:28:30.303Z,10.53
2022-10-18T01:31:06.145Z,11.07
2022-10-18T01:33:53.694Z,9.20
2022-10-18T01:36:43.971Z,11.17
2022-10-18T01:39:18.425Z,10.70
2022-10-18T01:41:47.936Z,10.40
2022-10-18T01:44:23.428Z,14.13
2022-10-18T01:46:56.305Z,14.47
2022-10-18T01:49:24.752Z,12.10
2022-10-18T01:51:51.711Z,11.67
2022-10-18T01:54:27.564Z,12.57
2022-10-18T01:57:07.347Z,12.00
2022-10-18T02:00:02.626Z,11.87
2022-10-18T02:02:50.825Z,9.03
2022-10-18T02:05:44.910Z,9.80
2022-10-18T02:08:38.503Z,9.90
2022-10-18T02:11:12.975Z,9.80
2022-10-18T02:13:57.685Z,11.17
2022-10-18T02:16:37.740Z,10.37
2022-10-18T02:19:37.475Z,8.97
2022-10-18T02:22:07.037Z,9.27
2022-10-18T02:24:45.997Z,10.23
2022-10-18T02:27:12.969Z,9.23
2022-10-18T02:29:42.163Z,12.57
2022-10-18T02:32:19.967Z,10.27
2022-10-18T02:34:58.600Z,10.43
2022-10-18T02:37:35.395Z,10.80
2022-10-18T02:40:05.930Z,11.10
2022-10-18T02:42:48.919Z,11.10
2022-10-18T02:45:17.162Z,10.73
2022-10-18T02:47:44.216Z,13.03
2022-10-18T02:50:11.369Z,12.27
2022-10-18T02:52:38.163Z,12.70
2022-10-18T02:55:06.871Z,11.90
2022-10-18T02:57:34.467Z,13.87
2022-10-18T03:00:01.412Z,10.97
2022-10-18T03:02:28.333Z,11.47
2022-10-18T03:04:55.157Z,11.50
2022-10-18T03:07:22.118Z,11.67
2022-10-18T03:09:49.024Z,12.03
2022-10-18T03:12:16.043Z,11.23
2022-10-18T03:14:42.944Z,11.10
2022-10-18T03:17:09.692Z,11.17
2022-10-18T03:19:38.516Z,12.87
2022-10-18T03:22:05.719Z,10.70
2022-10-18T03:24:32.618Z,10.03
2022-10-18T03:26:59.427Z,10.33
2022-10-18T03:29:26.246Z,10.80
2022-10-18T03:31:52.963Z,10.77
2022-10-18T03:34:19.826Z,10.63
2022-10-18T03:36:46.654Z,10.40
2022-10-18T03:39:13.722Z,11.63
2022-10-18T03:41:40.534Z,11.07
2022-10-18T03:44:07.339Z,11.63
2022-10-18T03:46:34.064Z,13.13
2022-10-18T03:49:00.772Z,11.30
2022-10-18T03:51:27.478Z,10.80
2022-10-18T03:53:54.206Z,10.10
2022-10-18T03:56:21.002Z,10.50
2022-10-18T03:58:47.733Z,10.30
2022-10-18T04:01:14.484Z,10.13
2022-10-18T04:03:41.237Z,10.70
2022-10-18T04:06:09.830Z,9.30
2022-10-18T04:08:36.595Z,9.57
2022-10-18T04:11:12.061Z,10.77
2022-10-18T04:13:38.872Z,9.33
2022-10-18T04:16:05.812Z,10.30
2022-10-18T04:18:32.508Z,8.97
2022-10-18T04:20:59.225Z,8.87
2022-10-18T04:23:25.992Z,11.33
2022-10-18T04:25:52.682Z,11.83
2022-10-18T04:28:19.441Z,8.37
2022-10-18T04:30:55.178Z,7.93
2022-10-18T04:33:21.891Z,8.00
2022-10-18T04:35:53.004Z,8.70
2022-10-18T04:38:20.485Z,8.70
2022-10-18T04:40:47.245Z,7.93
2022-10-18T04:43:14.334Z,8.43
2022-10-18T04:45:41.787Z,7.73
2022-10-18T04:48:08.648Z,8.07
2022-10-18T04:50:35.323Z,7.53
2022-10-18T04:53:02.078Z,7.33
2022-10-18T04:55:28.812Z,7.27
2022-10-18T04:57:55.700Z,11.00
2022-10-18T05:00:22.585Z,9.17
2022-10-18T05:02:49.356Z,8.97
2022-10-18T05:05:16.121Z,9.80
2022-10-18T05:07:42.863Z,9.40
2022-10-18T05:10:09.852Z,11.23
2022-10-18T05:12:36.550Z,14.00
2022-10-18T05:15:03.964Z,13.93
2022-10-18T05:17:30.645Z,14.53
2022-10-18T05:19:57.410Z,18.30
2022-10-18T05:22:24.104Z,16.53
2022-10-18T05:24:50.804Z,18.93
2022-10-18T05:27:17.488Z,19.03
2022-10-18T05:29:44.230Z,23.97
2022-10-18T05:32:10.938Z,25.70
2022-10-18T05:34:37.681Z,27.53
2022-10-18T05:37:04.411Z,28.23
2022-10-18T05:39:31.339Z,25.43
2022-10-18T05:41:58.458Z,32.47
2022-10-18T05:44:25.496Z,32.13
2022-10-18T05:46:52.441Z,33.93
2022-10-18T05:49:19.418Z,36.10
2022-10-18T05:51:46.155Z,33.83
2022-10-18T05:54:13.908Z,33.27
2022-10-18T05:56:41.650Z,29.97
2022-10-18T05:59:12.312Z,34.03
2022-10-18T06:01:43.529Z,32.10
2022-10-18T06:04:10.609Z,30.33
2022-10-18T06:06:38.899Z,30.00
2022-10-18T06:09:07.417Z,27.07
2022-10-18T06:11:36.064Z,32.13
2022-10-18T06:14:04.242Z,29.97
2022-10-18T06:16:32.590Z,30.70
2022-10-18T06:19:00.009Z,27.87
2022-10-18T06:21:27.094Z,31.97
2022-10-18T06:23:57.421Z,31.90
2022-10-18T06:26:25.481Z,34.30
2022-10-18T06:28:52.346Z,31.37
2022-10-18T06:31:21.262Z,35.73
2022-10-18T06:33:49.178Z,30.00
2022-10-18T06:36:22.058Z,33.77
2022-10-18T06:38:48.981Z,35.63
2022-10-18T06:41:16.150Z,33.20
2022-10-18T06:43:43.785Z,40.47
2022-10-18T06:46:10.647Z,34.90
2022-10-18T06:48:39.069Z,36.90
2022-10-18T06:51:07.574Z,34.47
2022-10-18T06:53:44.058Z,33.57
2022-10-18T06:56:20.075Z,38.23
2022-10-18T06:58:46.815Z,40.63
2022-10-18T07:01:16.770Z,33.70
2022-10-18T07:03:46.159Z,32.63
2022-10-18T07:06:16.690Z,37.23
2022-10-18T07:08:44.373Z,34.70
2022-10-18T07:11:37.237Z,34.77
2022-10-18T07:14:04.908Z,37.53
2022-10-18T07:16:33.368Z,41.40
2022-10-18T07:19:00.261Z,38.03
2022-10-18T07:21:27.330Z,37.50
2022-10-18T07:23:54.166Z,36.77
2022-10-18T07:26:33.086Z,36.80
2022-10-18T07:29:12.172Z,42.57
2022-10-18T07:31:39.291Z,36.70
2022-10-18T07:34:08.179Z,41.37
2022-10-18T07:36:35.196Z,39.90
2022-10-18T07:39:02.411Z,45.30
2022-10-18T07:41:29.971Z,41.47
2022-10-18T07:43:56.700Z,41.33
2022-10-18T07:46:23.482Z,42.13
2022-10-18T07:48:51.025Z,45.97
2022-10-18T07:51:21.897Z,43.87
2022-10-18T07:53:48.622Z,44.80
2022-10-18T07:56:21.221Z,46.23
2022-10-18T07:58:52.086Z,46.60
2022-10-18T08:01:21.585Z,49.10
2022-10-18T08:03:49.155Z,47.97
2022-10-18T08:06:18.490Z,48.53
2022-10-18T08:08:46.534Z,49.83
2022-10-18T08:11:21.154Z,45.23
2022-10-18T08:13:48.805Z,43.03
2022-10-18T08:16:19.755Z,46.00
2022-10-18T08:18:46.587Z,46.23
2022-10-18T08:21:15.235Z,41.53
2022-10-18T08:23:42.919Z,47.10
2022-10-18T08:26:14.374Z,46.47
2022-10-18T08:28:46.154Z,50.80
2022-10-18T08:31:21.012Z,50.17
2022-10-18T08:33:48.084Z,44.67
2022-10-18T08:36:18.462Z,44.67
2022-10-18T08:38:45.320Z,44.50
2022-10-18T08:41:55.059Z,49.13
2022-10-18T08:44:40.502Z,47.33
2022-10-18T08:47:21.234Z,51.57
2022-10-18T08:49:52.593Z,46.30
2022-10-18T08:53:01.373Z,52.03
2022-10-18T08:55:44.638Z,45.27
2022-10-18T08:58:26.717Z,45.07
2022-10-18T09:00:59.374Z,45.23
2022-10-18T09:04:00.770Z,45.50
2022-10-18T09:06:49.114Z,38.37
2022-10-18T09:10:05.024Z,38.77
2022-10-18T09:13:05.688Z,41.73
2022-10-18T09:15:58.313Z,40.77
2022-10-18T09:18:57.755Z,40.50
2022-10-18T09:21:37.687Z,35.67
2022-10-18T09:24:38.144Z,34.20
2022-10-18T09:27:16.975Z,34.30
2022-10-18T09:30:28.082Z,35.40
2022-10-18T09:33:19.733Z,33.13
2022-10-18T09:36:01.432Z,27.30
2022-10-18T09:38:47.990Z,31.57
2022-10-18T09:41:32.092Z,31.30
2022-10-18T09:44:17.781Z,31.40
2022-10-18T09:46:53.689Z,28.53
2022-10-18T09:49:29.600Z,30.33
2022-10-18T09:52:02.056Z,27.70
2022-10-18T09:54:38.920Z,31.73
2022-10-18T09:57:32.139Z,28.15
2022-10-18T10:00:03.417Z,30.23
2022-10-18T10:02:30.245Z,33.00
2022-10-18T10:04:57.155Z,36.63
2022-10-18T10:07:35.415Z,36.95
2022-10-18T10:10:24.378Z,34.93
2022-10-18T10:13:22.914Z,34.33
2022-10-18T10:16:03.021Z,33.38
2022-10-18T10:18:33.917Z,35.47
2022-10-18T10:21:08.115Z,36.42
2022-10-18T10:23:46.007Z,34.47
2022-10-18T10:26:34.784Z,33.50
2022-10-18T10:29:01.612Z,31.20
2022-10-18T10:31:34.152Z,33.33
2022-10-18T10:34:03.888Z,30.92
2022-10-18T10:36:32.918Z,31.13
2022-10-18T10:39:07.202Z,30.83
2022-10-18T10:41:34.916Z,26.38
2022-10-18T10:44:05.149Z,29.95
2022-10-18T10:46:36.661Z,25.92
2022-10-18T10:49:38.133Z,28.55
2022-10-18T10:52:28.278Z,27.40
2022-10-18T10:57:49.536Z,24.05
2022-10-18T11:00:42.745Z,28.20
2022-10-18T11:03:29.557Z,27.60
2022-10-18T11:06:00.327Z,27.17
2022-10-18T11:08:38.143Z,29.67
2022-10-18T11:11:23.172Z,28.13
2022-10-18T11:14:20.972Z,29.00
2022-10-18T11:17:19.795Z,31.45
2022-10-18T11:20:07.369Z,31.63
2022-10-18T11:22:45.050Z,35.15
2022-10-18T11:25:16.579Z,34.40
2022-10-18T11:28:01.513Z,32.28
2022-10-18T11:31:09.302Z,31.15
2022-10-18T11:34:09.507Z,31.02
2022-10-18T11:36:56.145Z,33.88
2022-10-18T11:40:08.487Z,32.90
2022-10-18T11:43:12.272Z,34.70
2022-10-18T11:46:01.006Z,31.48
2022-10-18T11:49:15.435Z,31.73
2022-10-18T11:52:10.355Z,31.42
2022-10-18T11:54:55.973Z,27.33
2022-10-18T11:58:01.977Z,30.33
2022-10-18T12:00:49.189Z,31.23
2022-10-18T12:03:44.486Z,28.83
2022-10-18T12:06:21.857Z,30.08
2022-10-18T12:08:57.307Z,31.50
2022-10-18T12:11:43.956Z,27.90
2022-10-18T12:14:38.353Z,31.55
2022-10-18T12:17:41.725Z,28.63
2022-10-18T12:20:24.845Z,26.25
2022-10-18T12:23:29.842Z,30.40
2022-10-18T12:26:10.306Z,25.08
2022-10-18T12:29:03.006Z,24.52
2022-10-18T12:31:54.107Z,28.20
2022-10-18T12:34:23.883Z,28.20
2022-10-18T12:37:41.198Z,28.15
2022-10-18T12:40:25.646Z,27.25
2022-10-18T12:42:53.712Z,28.15
2022-10-18T12:45:34.770Z,28.73
2022-10-18T12:48:06.776Z,31.52
2022-10-18T12:50:42.481Z,30.98
2022-10-18T12:53:12.376Z,27.65
2022-10-18T12:55:47.400Z,29.73
2022-10-18T12:58:14.099Z,28.92
2022-10-18T13:00:43.746Z,29.27
2022-10-18T13:03:11.386Z,25.83
2022-10-18T13:05:55.943Z,30.77
2022-10-18T13:08:33.843Z,26.77
2022-10-18T13:11:09.601Z,25.15
2022-10-18T13:13:54.292Z,28.23
2022-10-18T13:16:35.727Z,23.25
2022-10-18T13:19:23.144Z,23.35
2022-10-18T13:22:27.982Z,24.50
2022-10-18T13:25:29.365Z,22.42
2022-10-18T13:28:37.856Z,26.27
2022-10-18T13:31:27.254Z,22.20
2022-10-18T13:33:54.141Z,22.08
2022-10-18T13:36:23.606Z,21.75
2022-10-18T13:38:57.625Z,20.35
2022-10-18T13:41:31.393Z,18.85
2022-10-18T13:44:28.305Z,17.63
2022-10-18T13:46:54.966Z,16.63
2022-10-18T13:49:39.666Z,18.83
2022-10-18T13:52:43.299Z,17.67
2022-10-18T13:56:13.109Z,19.08
2022-10-18T13:59:13.105Z,20.27
2022-10-18T14:02:13.250Z,19.05
2022-10-18T14:05:32.308Z,22.02
2022-10-18T14:08:10.559Z,18.27
2022-10-18T14:11:02.222Z,19.95
2022-10-18T14:14:03.281Z,23.27
2022-10-18T14:16:46.886Z,17.90
2022-10-18T14:19:44.785Z,20.80
2022-10-18T14:22:43.218Z,21.45
2022-10-18T14:25:35.624Z,23.23
2022-10-18T14:28:14.173Z,23.55
2022-10-18T14:31:08.288Z,24.13
2022-10-18T14:33:41.739Z,19.98
2022-10-18T14:36:15.510Z,22.50
2022-10-18T14:38:53.694Z,19.40
2022-10-18T14:41:20.450Z,20.85
2022-10-18T14:43:48.261Z,22.42
2022-10-18T14:46:28.972Z,22.58
2022-10-18T14:49:04.528Z,19.83
2022-10-18T14:51:36.540Z,23.80
2022-10-18T14:54:03.736Z,21.98
2022-10-18T14:56:36.518Z,25.03
2022-10-18T14:59:13.273Z,28.17
2022-10-18T15:01:40.110Z,26.37
2022-10-18T15:04:11.614Z,26.13
2022-10-18T15:06:44.351Z,22.27
2022-10-18T15:09:14.413Z,22.53
2022-10-18T15:11:44.698Z,24.20
2022-10-18T15:14:17.914Z,26.57
2022-10-18T15:16:47.042Z,22.53
2022-10-18T15:19:16.780Z,26.23
2022-10-18T15:25:26.754Z,19.43
2022-10-18T15:27:58.119Z,21.90
2022-10-18T15:30:41.191Z,21.00
2022-10-18T15:33:21.434Z,19.63
2022-10-18T15:35:48.713Z,17.47
2022-10-18T15:38:28.014Z,18.77
2022-10-18T15:40:55.528Z,16.83
2022-10-18T15:43:27.732Z,16.80
2022-10-18T15:46:01.729Z,17.83
2022-10-18T15:48:39.493Z,17.20
2022-10-18T15:51:20.467Z,19.60
2022-10-18T15:53:49.874Z,13.77
2022-10-18T15:56:35.939Z,12.00
2022-10-18T15:59:06.957Z,21.40
2022-10-18T16:01:38.165Z,25.80
2022-10-18T16:04:18.168Z,19.83
2022-10-18T16:06:44.962Z,14.57
2022-10-18T16:09:17.783Z,15.43
2022-10-18T16:11:45.335Z,14.47
2022-10-18T16:14:12.379Z,19.27
2022-10-18T16:16:40.211Z,15.00
2022-10-18T16:19:08.268Z,16.13
2022-10-18T16:21:39.010Z,16.97
2022-10-18T16:24:06.356Z,21.97
2022-10-18T16:26:34.530Z,20.70
2022-10-18T16:29:01.648Z,17.40
2022-10-18T16:31:32.894Z,17.73
2022-10-18T16:34:00.508Z,19.70
2022-10-18T16:36:31.527Z,16.40
2022-10-18T16:39:01.735Z,19.83
2022-10-18T16:41:28.867Z,18.83
2022-10-18T16:43:55.636Z,18.77
2022-10-18T16:46:28.621Z,20.93
2022-10-18T16:48:56.250Z,21.67
2022-10-18T16:51:24.001Z,23.57
2022-10-18T16:53:53.265Z,18.77
2022-10-18T16:56:30.601Z,17.37
2022-10-18T16:58:58.352Z,19.37
2022-10-18T17:01:26.256Z,22.10
2022-10-18T17:03:55.150Z,20.77
2022-10-18T17:06:29.470Z,19.00
2022-10-18T17:08:57.490Z,20.50
2022-10-18T17:11:28.191Z,19.40
2022-10-18T17:13:55.756Z,27.43
2022-10-18T17:16:30.750Z,17.30
2022-10-18T17:19:01.241Z,21.80
2022-10-18T17:21:29.729Z,17.00
2022-10-18T17:24:01.115Z,22.90
2022-10-18T17:26:29.677Z,21.63
2022-10-18T17:29:00.629Z,21.10
2022-10-18T17:31:30.433Z,21.30
2022-10-18T17:33:58.726Z,20.23
2022-10-18T17:36:26.347Z,16.00
2022-10-18T17:38:55.078Z,22.43
2022-10-18T17:41:22.351Z,22.63
2022-10-18T17:43:49.603Z,18.67
2022-10-18T17:46:17.781Z,22.30
2022-10-18T17:48:44.934Z,21.37
2022-10-18T17:51:16.116Z,20.37
2022-10-18T17:53:42.911Z,25.60
2022-10-18T17:56:12.200Z,24.33
2022-10-18T17:58:39.405Z,16.23
2022-10-18T18:01:10.664Z,20.80
2022-10-18T18:03:37.758Z,23.90
2022-10-18T18:06:19.820Z,17.23
2022-10-18T18:08:48.440Z,22.23
2022-10-18T18:11:16.974Z,21.97
2022-10-18T18:13:43.773Z,23.77
2022-10-18T18:16:16.581Z,24.47
2022-10-18T18:18:44.786Z,22.03
2022-10-18T18:21:12.351Z,23.90
2022-10-18T18:23:39.275Z,17.73
2022-10-18T18:26:06.478Z,19.83
2022-10-18T18:28:36.067Z,17.87
2022-10-18T18:31:16.929Z,25.63
2022-10-18T18:33:44.857Z,19.40
2022-10-18T18:36:12.149Z,17.07
2022-10-18T18:38:42.615Z,26.43
2022-10-18T18:41:14.026Z,24.47
2022-10-18T18:43:49.852Z,18.67
2022-10-18T18:46:16.742Z,21.20
2022-10-18T18:48:44.230Z,21.93
2022-10-18T18:51:16.425Z,17.90
2022-10-18T18:53:45.504Z,21.33
2022-10-18T18:56:19.247Z,18.43
2022-10-18T18:58:47.609Z,21.13
2022-10-18T19:01:27.489Z,19.50
2022-10-18T19:03:56.748Z,19.13
2022-10-18T19:10:33.269Z,22.23
2022-10-18T19:13:00.454Z,23.47
2022-10-18T19:15:28.148Z,19.63
2022-10-18T19:17:59.262Z,21.43
2022-10-18T19:20:26.008Z,18.40
2022-10-18T19:22:53.542Z,19.63
2022-10-18T19:25:22.262Z,19.77
2022-10-18T19:27:51.556Z,21.13
2022-10-18T19:30:19.762Z,22.53
2022-10-18T19:33:01.123Z,22.10
2022-10-18T19:35:40.505Z,53.90
2022-10-18T19:38:07.266Z,25.00
2022-10-18T19:40:33.991Z,26.27
2022-10-18T19:43:00.797Z,21.30
2022-10-18T19:45:27.592Z,25.60
2022-10-18T19:47:54.309Z,21.53
2022-10-18T19:50:21.130Z,25.57
2022-10-18T19:52:48.042Z,24.27
2022-10-18T19:55:14.933Z,22.23
2022-10-18T19:57:41.749Z,26.33
2022-10-18T20:00:10.850Z,21.63
2022-10-18T20:02:38.056Z,25.97
2022-10-18T20:05:05.327Z,26.23
2022-10-18T20:07:32.137Z,21.27
2022-10-18T20:09:59.580Z,31.70
2022-10-18T20:12:26.542Z,23.50
2022-10-18T20:14:53.206Z,26.27
2022-10-18T20:17:20.799Z,22.50
2022-10-18T20:19:48.464Z,17.23
2022-10-18T20:22:15.271Z,25.23
2022-10-18T20:24:42.063Z,21.97
2022-10-18T20:27:08.856Z,24.73
2022-10-18T20:29:35.674Z,20.67
2022-10-18T20:32:02.444Z,22.10
2022-10-18T20:34:29.382Z,21.50
2022-10-18T20:36:56.290Z,23.50
2022-10-18T20:39:23.294Z,29.83
2022-10-18T20:41:50.744Z,30.07
2022-10-18T20:44:19.678Z,18.97
2022-10-18T20:46:47.136Z,22.37
2022-10-18T20:49:16.544Z,26.20
2022-10-18T20:51:43.516Z,23.00
2022-10-18T20:54:11.044Z,22.33
2022-10-18T20:56:39.120Z,20.87
2022-10-18T20:59:09.553Z,21.63
2022-10-18T21:01:38.168Z,22.40
2022-10-18T21:04:08.182Z,23.57
2022-10-18T21:06:41.949Z,23.67
2022-10-18T21:09:13.899Z,20.37
2022-10-18T21:11:45.346Z,26.93
2022-10-18T21:14:16.077Z,19.93
2022-10-18T21:16:43.873Z,16.17
2022-10-18T21:19:30.793Z,19.60
2022-10-18T21:21:58.001Z,20.20
2022-10-18T21:24:26.180Z,19.20
2022-10-18T21:26:53.849Z,19.50
2022-10-18T21:29:22.654Z,20.63
2022-10-18T21:31:52.464Z,21.73
2022-10-18T21:34:19.250Z,18.13
2022-10-18T21:36:47.899Z,22.07
2022-10-18T21:39:19.283Z,25.43
2022-10-18T21:41:46.939Z,17.57
2022-10-18T21:44:14.736Z,18.03
2022-10-18T21:46:46.638Z,20.63
2022-10-18T21:49:15.145Z,17.30
2022-10-18T21:51:43.168Z,21.90
2022-10-18T21:54:16.285Z,20.93
2022-10-18T21:56:43.380Z,20.07
2022-10-18T21:59:13.143Z,19.30
2022-10-18T22:01:40.704Z,20.60
2022-10-18T22:04:18.449Z,20.93
2022-10-18T22:06:45.189Z,30.90
2022-10-18T22:09:11.949Z,22.00
2022-10-18T22:11:44.969Z,13.90
2022-10-18T22:14:11.944Z,17.17
2022-10-18T22:16:39.142Z,15.60
2022-10-18T22:19:07.292Z,14.07
2022-10-18T22:21:34.871Z,18.43
2022-10-18T22:24:06.555Z,16.60
2022-10-18T22:26:37.640Z,19.13
2022-10-18T22:29:13.792Z,22.30
2022-10-18T22:31:45.336Z,14.93
2022-10-18T22:34:17.447Z,16.07
2022-10-18T22:36:45.703Z,18.37
2022-10-18T22:39:16.863Z,14.90
2022-10-18T22:41:44.853Z,14.33
2022-10-18T22:44:14.540Z,22.33
2022-10-18T22:46:42.349Z,14.70
2022-10-18T22:49:09.151Z,13.90
2022-10-18T22:54:02.954Z,14.83
2022-10-18T22:56:29.670Z,18.60
2022-10-18T22:58:56.433Z,17.00
2022-10-18T23:01:24.317Z,14.90
2022-10-18T23:03:59.691Z,12.63
2022-10-18T23:06:29.649Z,15.17
2022-10-18T23:08:59.761Z,17.73
2022-10-18T23:11:28.245Z,14.67
2022-10-18T23:13:55.407Z,13.77
2022-10-18T23:16:22.658Z,14.17
2022-10-18T23:18:55.326Z,12.93
2022-10-18T23:21:24.335Z,14.87
2022-10-18T23:23:52.846Z,12.90
2022-10-18T23:26:23.557Z,12.57
2022-10-18T23:28:52.204Z,12.83
2022-10-18T23:31:23.257Z,12.47
2022-10-18T23:33:53.316Z,10.27
2022-10-18T23:36:21.368Z,15.97
2022-10-18T23:38:48.243Z,11.33
2022-10-18T23:41:16.454Z,12.20
2022-10-18T23:43:43.821Z,11.17
2022-10-18T23:46:12.593Z,13.30
2022-10-18T23:48:39.817Z,11.67
2022-10-18T23:51:07.668Z,14.27
2022-10-18T23:53:35.082Z,16.13
2022-10-18T23:56:09.414Z,12.80
2022-10-18T23:58:37.278Z,14.20
